sensor_id;sensor_type;location;lat;lon;timestamp;pressure;altitude;pressure_sealevel;temperature;humidity
4326;BME280;58429;49.826;10.880;2023-01-31T00:00:16;99167;;;2.96;81.39
4326;BME280;58429;49.826;10.880;2023-01-31T00:01:17;99165;;;2.97;81.48
4326;BME280;58429;49.826;10.880;2023-01-31T00:02:16;99166;;;2.92;81.45
4326;BME280;58429;49.826;10.880;2023-01-31T00:03:16;99167;;;2.93;81.5
4326;BME280;58429;49.826;10.880;2023-01-31T00:04:16;99169;;;2.87;81.55
4326;BME280;58429;49.826;10.880;2023-01-31T00:05:16;99161;;;2.9;81.6
4326;BME280;58429;49.826;10.880;2023-01-31T00:06:16;99165;;;2.83;81.62
4326;BME280;58429;49.826;10.880;2023-01-31T00:07:16;99166;;;2.86;81.64
4326;BME280;58429;49.826;10.880;2023-01-31T00:08:16;99167;;;2.81;81.63
4326;BME280;58429;49.826;10.880;2023-01-31T00:09:16;99163;;;2.83;81.63
4326;BME280;58429;49.826;10.880;2023-01-31T00:10:16;99165;;;2.83;81.6
4326;BME280;58429;49.826;10.880;2023-01-31T00:11:17;99165;;;2.81;81.6
4326;BME280;58429;49.826;10.880;2023-01-31T00:12:16;99166;;;2.81;81.58
4326;BME280;58429;49.826;10.880;2023-01-31T00:13:16;99166;;;2.83;81.58
4326;BME280;58429;49.826;10.880;2023-01-31T00:14:17;99166;;;2.81;81.59
4326;BME280;58429;49.826;10.880;2023-01-31T00:15:16;99169;;;2.79;81.61
4326;BME280;58429;49.826;10.880;2023-01-31T00:16:16;99170;;;2.8;81.63
4326;BME280;58429;49.826;10.880;2023-01-31T00:17:16;99179;;;2.8;81.62
4326;BME280;58429;49.826;10.880;2023-01-31T00:18:16;99172;;;2.8;81.64
4326;BME280;58429;49.826;10.880;2023-01-31T00:19:16;99179;;;2.79;81.7
4326;BME280;58429;49.826;10.880;2023-01-31T00:20:16;99181;;;2.77;81.76
4326;BME280;58429;49.826;10.880;2023-01-31T00:21:17;99176;;;2.78;81.78
4326;BME280;58429;49.826;10.880;2023-01-31T00:22:16;99174;;;2.79;81.81
4326;BME280;58429;49.826;10.880;2023-01-31T00:23:16;99176;;;2.77;81.85
4326;BME280;58429;49.826;10.880;2023-01-31T00:24:16;99182;;;2.75;81.89
4326;BME280;58429;49.826;10.880;2023-01-31T00:25:16;99178;;;2.79;81.88
4326;BME280;58429;49.826;10.880;2023-01-31T00:26:17;99183;;;2.78;81.89
4326;BME280;58429;49.826;10.880;2023-01-31T00:27:16;99187;;;2.77;81.88
4326;BME280;58429;49.826;10.880;2023-01-31T00:28:16;99180;;;2.75;81.92
4326;BME280;58429;49.826;10.880;2023-01-31T00:29:16;99190;;;2.78;81.96
4326;BME280;58429;49.826;10.880;2023-01-31T00:30:16;99193;;;2.75;81.95
4326;BME280;58429;49.826;10.880;2023-01-31T00:31:16;99195;;;2.75;81.98
4326;BME280;58429;49.826;10.880;2023-01-31T00:32:16;99190;;;2.77;81.97
4326;BME280;58429;49.826;10.880;2023-01-31T00:33:16;99202;;;2.8;81.97
4326;BME280;58429;49.826;10.880;2023-01-31T00:34:16;99202;;;2.81;81.96
4326;BME280;58429;49.826;10.880;2023-01-31T00:35:16;99205;;;2.81;81.95
4326;BME280;58429;49.826;10.880;2023-01-31T00:36:17;99201;;;2.8;81.92
4326;BME280;58429;49.826;10.880;2023-01-31T00:37:16;99206;;;2.8;81.93
4326;BME280;58429;49.826;10.880;2023-01-31T00:38:16;99201;;;2.83;81.98
4326;BME280;58429;49.826;10.880;2023-01-31T00:39:16;99201;;;2.8;82
4326;BME280;58429;49.826;10.880;2023-01-31T00:40:16;99210;;;2.8;82.08
4326;BME280;58429;49.826;10.880;2023-01-31T00:41:16;99211;;;2.8;82.1
4326;BME280;58429;49.826;10.880;2023-01-31T00:42:16;99213;;;2.8;82.09
4326;BME280;58429;49.826;10.880;2023-01-31T00:43:16;99203;;;2.83;82.11
4326;BME280;58429;49.826;10.880;2023-01-31T00:44:16;99206;;;2.82;82.09
4326;BME280;58429;49.826;10.880;2023-01-31T00:45:16;99210;;;2.82;82.16
4326;BME280;58429;49.826;10.880;2023-01-31T00:46:16;99206;;;2.78;82.16
4326;BME280;58429;49.826;10.880;2023-01-31T00:47:16;99205;;;2.79;82.2
4326;BME280;58429;49.826;10.880;2023-01-31T00:48:16;99215;;;2.8;82.15
4326;BME280;58429;49.826;10.880;2023-01-31T00:49:16;99218;;;2.79;82.21
4326;BME280;58429;49.826;10.880;2023-01-31T00:50:16;99209;;;2.82;82.25
4326;BME280;58429;49.826;10.880;2023-01-31T00:51:16;99201;;;2.79;82.26
4326;BME280;58429;49.826;10.880;2023-01-31T00:52:16;99202;;;2.78;82.27
4326;BME280;58429;49.826;10.880;2023-01-31T00:53:16;99202;;;2.77;82.25
4326;BME280;58429;49.826;10.880;2023-01-31T00:54:16;99202;;;2.77;82.27
4326;BME280;58429;49.826;10.880;2023-01-31T00:55:16;99206;;;2.77;82.27
4326;BME280;58429;49.826;10.880;2023-01-31T00:56:16;99205;;;2.78;82.26
4326;BME280;58429;49.826;10.880;2023-01-31T00:57:16;99204;;;2.77;82.29
4326;BME280;58429;49.826;10.880;2023-01-31T00:58:16;99208;;;2.74;82.32
4326;BME280;58429;49.826;10.880;2023-01-31T00:59:16;99214;;;2.72;82.36
4326;BME280;58429;49.826;10.880;2023-01-31T01:00:16;99209;;;2.72;82.37
4326;BME280;58429;49.826;10.880;2023-01-31T01:01:17;99208;;;2.7;82.41
4326;BME280;58429;49.826;10.880;2023-01-31T01:02:16;99204;;;2.68;82.41
4326;BME280;58429;49.826;10.880;2023-01-31T01:03:16;99200;;;2.71;82.41
4326;BME280;58429;49.826;10.880;2023-01-31T01:04:16;99201;;;2.69;82.4
4326;BME280;58429;49.826;10.880;2023-01-31T01:05:16;99206;;;2.74;82.4
4326;BME280;58429;49.826;10.880;2023-01-31T01:06:16;99210;;;2.71;82.35
4326;BME280;58429;49.826;10.880;2023-01-31T01:07:16;99202;;;2.68;82.38
4326;BME280;58429;49.826;10.880;2023-01-31T01:08:16;99204;;;2.69;82.38
4326;BME280;58429;49.826;10.880;2023-01-31T01:09:16;99203;;;2.71;82.45
4326;BME280;58429;49.826;10.880;2023-01-31T01:10:16;99201;;;2.67;82.45
4326;BME280;58429;49.826;10.880;2023-01-31T01:11:17;99198;;;2.68;82.5
4326;BME280;58429;49.826;10.880;2023-01-31T01:12:16;99197;;;2.65;82.51
4326;BME280;58429;49.826;10.880;2023-01-31T01:13:16;99204;;;2.66;82.54
4326;BME280;58429;49.826;10.880;2023-01-31T01:14:16;99201;;;2.66;82.51
4326;BME280;58429;49.826;10.880;2023-01-31T01:15:16;99195;;;2.65;82.51
4326;BME280;58429;49.826;10.880;2023-01-31T01:16:17;99198;;;2.59;82.51
4326;BME280;58429;49.826;10.880;2023-01-31T01:17:16;99196;;;2.65;82.56
4326;BME280;58429;49.826;10.880;2023-01-31T01:18:16;99199;;;2.62;82.53
4326;BME280;58429;49.826;10.880;2023-01-31T01:19:17;99200;;;2.62;82.5
4326;BME280;58429;49.826;10.880;2023-01-31T01:20:16;99201;;;2.6;82.47
4326;BME280;58429;49.826;10.880;2023-01-31T01:21:17;99213;;;2.6;82.52
4326;BME280;58429;49.826;10.880;2023-01-31T01:22:16;99197;;;2.59;82.53
4326;BME280;58429;49.826;10.880;2023-01-31T01:23:16;99206;;;2.6;82.57
4326;BME280;58429;49.826;10.880;2023-01-31T01:24:17;99211;;;2.59;82.59
4326;BME280;58429;49.826;10.880;2023-01-31T01:25:16;99217;;;2.57;82.57
4326;BME280;58429;49.826;10.880;2023-01-31T01:26:16;99217;;;2.55;82.61
4326;BME280;58429;49.826;10.880;2023-01-31T01:27:16;99220;;;2.53;82.64
4326;BME280;58429;49.826;10.880;2023-01-31T01:28:16;99217;;;2.51;82.67
4326;BME280;58429;49.826;10.880;2023-01-31T01:29:16;99217;;;2.49;82.74
4326;BME280;58429;49.826;10.880;2023-01-31T01:30:16;99223;;;2.53;82.69
4326;BME280;58429;49.826;10.880;2023-01-31T01:31:17;99217;;;2.48;82.76
4326;BME280;58429;49.826;10.880;2023-01-31T01:32:16;99216;;;2.43;82.85
4326;BME280;58429;49.826;10.880;2023-01-31T01:33:16;99213;;;2.42;82.84
4326;BME280;58429;49.826;10.880;2023-01-31T01:34:16;99209;;;2.43;82.94
4326;BME280;58429;49.826;10.880;2023-01-31T01:35:16;99216;;;2.43;83.03
4326;BME280;58429;49.826;10.880;2023-01-31T01:36:17;99210;;;2.45;83.11
4326;BME280;58429;49.826;10.880;2023-01-31T01:37:16;99211;;;2.42;83.15
4326;BME280;58429;49.826;10.880;2023-01-31T01:38:16;99210;;;2.41;83.18
4326;BME280;58429;49.826;10.880;2023-01-31T01:39:16;99212;;;2.4;83.19
4326;BME280;58429;49.826;10.880;2023-01-31T01:40:16;99214;;;2.41;83.2
4326;BME280;58429;49.826;10.880;2023-01-31T01:41:16;99207;;;2.39;83.21
4326;BME280;58429;49.826;10.880;2023-01-31T01:42:17;99214;;;2.39;83.25
4326;BME280;58429;49.826;10.880;2023-01-31T01:43:16;99222;;;2.38;83.23
4326;BME280;58429;49.826;10.880;2023-01-31T01:44:49;99214;;;2.36;83.25
4326;BME280;58429;49.826;10.880;2023-01-31T01:45:16;99221;;;2.36;83.21
4326;BME280;58429;49.826;10.880;2023-01-31T01:46:17;99217;;;2.38;83.31
4326;BME280;58429;49.826;10.880;2023-01-31T01:47:21;99220;;;2.35;83.3
4326;BME280;58429;49.826;10.880;2023-01-31T01:48:16;99221;;;2.35;83.31
4326;BME280;58429;49.826;10.880;2023-01-31T01:49:17;99229;;;2.35;83.34
4326;BME280;58429;49.826;10.880;2023-01-31T01:50:19;99223;;;2.34;83.35
4326;BME280;58429;49.826;10.880;2023-01-31T01:51:16;99231;;;2.34;83.33
4326;BME280;58429;49.826;10.880;2023-01-31T01:52:16;99230;;;2.34;83.33
4326;BME280;58429;49.826;10.880;2023-01-31T01:53:17;99232;;;2.32;83.33
4326;BME280;58429;49.826;10.880;2023-01-31T01:54:17;99234;;;2.33;83.38
4326;BME280;58429;49.826;10.880;2023-01-31T01:55:18;99231;;;2.3;83.37
4326;BME280;58429;49.826;10.880;2023-01-31T01:56:17;99237;;;2.3;83.39
4326;BME280;58429;49.826;10.880;2023-01-31T01:57:17;99228;;;2.29;83.4
4326;BME280;58429;49.826;10.880;2023-01-31T01:58:17;99226;;;2.29;83.54
4326;BME280;58429;49.826;10.880;2023-01-31T01:59:17;99224;;;2.28;83.53
4326;BME280;58429;49.826;10.880;2023-01-31T02:00:18;99229;;;2.29;83.57
4326;BME280;58429;49.826;10.880;2023-01-31T02:01:16;99234;;;2.28;83.58
4326;BME280;58429;49.826;10.880;2023-01-31T02:02:16;99231;;;2.25;83.7
4326;BME280;58429;49.826;10.880;2023-01-31T02:03:17;99227;;;2.25;83.72
4326;BME280;58429;49.826;10.880;2023-01-31T02:04:17;99224;;;2.23;83.72
4326;BME280;58429;49.826;10.880;2023-01-31T02:05:18;99226;;;2.26;83.75
4326;BME280;58429;49.826;10.880;2023-01-31T02:06:16;99235;;;2.25;83.76
4326;BME280;58429;49.826;10.880;2023-01-31T02:07:16;99234;;;2.28;83.76
4326;BME280;58429;49.826;10.880;2023-01-31T02:08:17;99227;;;2.27;83.74
4326;BME280;58429;49.826;10.880;2023-01-31T02:09:18;99231;;;2.25;83.73
4326;BME280;58429;49.826;10.880;2023-01-31T02:10:18;99231;;;2.24;83.78
4326;BME280;58429;49.826;10.880;2023-01-31T02:11:18;99221;;;2.26;83.8
4326;BME280;58429;49.826;10.880;2023-01-31T02:12:16;99229;;;2.24;83.74
4326;BME280;58429;49.826;10.880;2023-01-31T02:13:17;99225;;;2.22;83.71
4326;BME280;58429;49.826;10.880;2023-01-31T02:14:16;99218;;;2.22;83.78
4326;BME280;58429;49.826;10.880;2023-01-31T02:15:16;99225;;;2.18;83.77
4326;BME280;58429;49.826;10.880;2023-01-31T02:16:16;99226;;;2.17;83.88
4326;BME280;58429;49.826;10.880;2023-01-31T02:17:17;99220;;;2.2;83.9
4326;BME280;58429;49.826;10.880;2023-01-31T02:18:16;99218;;;2.18;83.94
4326;BME280;58429;49.826;10.880;2023-01-31T02:19:18;99221;;;2.17;83.91
4326;BME280;58429;49.826;10.880;2023-01-31T02:20:22;99220;;;2.14;83.97
4326;BME280;58429;49.826;10.880;2023-01-31T02:21:23;99216;;;2.14;84
4326;BME280;58429;49.826;10.880;2023-01-31T02:22:18;99229;;;2.12;84.02
4326;BME280;58429;49.826;10.880;2023-01-31T02:23:23;99231;;;2.1;84.09
4326;BME280;58429;49.826;10.880;2023-01-31T02:24:21;99225;;;2.09;84.12
4326;BME280;58429;49.826;10.880;2023-01-31T02:25:25;99230;;;2.09;84.2
4326;BME280;58429;49.826;10.880;2023-01-31T02:26:31;99231;;;2.09;84.17
4326;BME280;58429;49.826;10.880;2023-01-31T02:27:21;99233;;;2.06;84.24
4326;BME280;58429;49.826;10.880;2023-01-31T02:28:25;99234;;;2.07;84.29
4326;BME280;58429;49.826;10.880;2023-01-31T02:29:22;99235;;;2.04;84.3
4326;BME280;58429;49.826;10.880;2023-01-31T02:30:22;99226;;;2.03;84.4
4326;BME280;58429;49.826;10.880;2023-01-31T02:31:29;99232;;;2.01;84.33
4326;BME280;58429;49.826;10.880;2023-01-31T02:32:30;99238;;;1.99;84.48
4326;BME280;58429;49.826;10.880;2023-01-31T02:33:18;99239;;;1.99;84.49
4326;BME280;58429;49.826;10.880;2023-01-31T02:34:18;99238;;;1.97;84.51
4326;BME280;58429;49.826;10.880;2023-01-31T02:35:19;99244;;;1.97;84.64
4326;BME280;58429;49.826;10.880;2023-01-31T02:36:19;99239;;;1.97;84.62
4326;BME280;58429;49.826;10.880;2023-01-31T02:37:19;99243;;;1.93;84.7
4326;BME280;58429;49.826;10.880;2023-01-31T02:38:19;99247;;;1.95;84.66
4326;BME280;58429;49.826;10.880;2023-01-31T02:39:18;99251;;;1.96;84.63
4326;BME280;58429;49.826;10.880;2023-01-31T02:40:19;99247;;;1.95;84.6
4326;BME280;58429;49.826;10.880;2023-01-31T02:41:17;99250;;;1.93;84.72
4326;BME280;58429;49.826;10.880;2023-01-31T02:42:18;99248;;;1.92;84.66
4326;BME280;58429;49.826;10.880;2023-01-31T02:43:17;99254;;;1.93;84.68
4326;BME280;58429;49.826;10.880;2023-01-31T02:44:18;99252;;;1.91;84.68
4326;BME280;58429;49.826;10.880;2023-01-31T02:45:18;99255;;;1.91;84.71
4326;BME280;58429;49.826;10.880;2023-01-31T02:46:16;99246;;;1.91;84.72
4326;BME280;58429;49.826;10.880;2023-01-31T02:47:18;99251;;;1.89;84.83
4326;BME280;58429;49.826;10.880;2023-01-31T02:48:18;99247;;;1.89;84.81
4326;BME280;58429;49.826;10.880;2023-01-31T02:49:17;99242;;;1.91;84.85
4326;BME280;58429;49.826;10.880;2023-01-31T02:50:19;99249;;;1.89;84.83
4326;BME280;58429;49.826;10.880;2023-01-31T02:51:18;99257;;;1.91;84.85
4326;BME280;58429;49.826;10.880;2023-01-31T02:52:19;99256;;;1.93;84.79
4326;BME280;58429;49.826;10.880;2023-01-31T02:53:18;99256;;;1.89;84.83
4326;BME280;58429;49.826;10.880;2023-01-31T02:54:17;99256;;;1.91;84.85
4326;BME280;58429;49.826;10.880;2023-01-31T02:55:17;99267;;;1.9;84.98
4326;BME280;58429;49.826;10.880;2023-01-31T02:56:17;99259;;;1.89;85.04
4326;BME280;58429;49.826;10.880;2023-01-31T02:57:17;99259;;;1.88;85.02
4326;BME280;58429;49.826;10.880;2023-01-31T02:58:17;99259;;;1.88;85.07
4326;BME280;58429;49.826;10.880;2023-01-31T02:59:17;99261;;;1.87;85.12
4326;BME280;58429;49.826;10.880;2023-01-31T03:00:17;99262;;;1.9;85.11
4326;BME280;58429;49.826;10.880;2023-01-31T03:01:18;99261;;;1.89;85.02
4326;BME280;58429;49.826;10.880;2023-01-31T03:02:17;99261;;;1.88;85.06
4326;BME280;58429;49.826;10.880;2023-01-31T03:03:17;99263;;;1.87;85.07
4326;BME280;58429;49.826;10.880;2023-01-31T03:04:17;99265;;;1.88;85.11
4326;BME280;58429;49.826;10.880;2023-01-31T03:05:17;99267;;;1.87;85.17
4326;BME280;58429;49.826;10.880;2023-01-31T03:06:50;99269;;;1.83;85.18
4326;BME280;58429;49.826;10.880;2023-01-31T03:07:18;99269;;;1.81;85.25
4326;BME280;58429;49.826;10.880;2023-01-31T03:08:17;99276;;;1.83;85.37
4326;BME280;58429;49.826;10.880;2023-01-31T03:09:17;99264;;;1.83;85.36
4326;BME280;58429;49.826;10.880;2023-01-31T03:10:20;99270;;;1.83;85.31
4326;BME280;58429;49.826;10.880;2023-01-31T03:11:17;99274;;;1.81;85.33
4326;BME280;58429;49.826;10.880;2023-01-31T03:12:35;99280;;;1.82;85.38
4326;BME280;58429;49.826;10.880;2023-01-31T03:13:21;99279;;;1.79;85.47
4326;BME280;58429;49.826;10.880;2023-01-31T03:14:18;99280;;;1.83;85.49
4326;BME280;58429;49.826;10.880;2023-01-31T03:15:21;99286;;;1.82;85.48
4326;BME280;58429;49.826;10.880;2023-01-31T03:16:19;99290;;;1.8;85.5
4326;BME280;58429;49.826;10.880;2023-01-31T03:17:19;99291;;;1.81;85.43
4326;BME280;58429;49.826;10.880;2023-01-31T03:18:17;99289;;;1.8;85.44
4326;BME280;58429;49.826;10.880;2023-01-31T03:19:18;99295;;;1.79;85.45
4326;BME280;58429;49.826;10.880;2023-01-31T03:20:18;99291;;;1.77;85.48
4326;BME280;58429;49.826;10.880;2023-01-31T03:21:17;99302;;;1.81;85.53
4326;BME280;58429;49.826;10.880;2023-01-31T03:22:17;99306;;;1.79;85.4
4326;BME280;58429;49.826;10.880;2023-01-31T03:23:17;99315;;;1.79;85.47
4326;BME280;58429;49.826;10.880;2023-01-31T03:24:17;99314;;;1.83;85.52
4326;BME280;58429;49.826;10.880;2023-01-31T03:25:18;99317;;;1.82;85.43
4326;BME280;58429;49.826;10.880;2023-01-31T03:26:17;99315;;;1.81;85.5
4326;BME280;58429;49.826;10.880;2023-01-31T03:27:17;99317;;;1.82;85.54
4326;BME280;58429;49.826;10.880;2023-01-31T03:28:19;99310;;;1.83;85.56
4326;BME280;58429;49.826;10.880;2023-01-31T03:29:17;99319;;;1.82;85.51
4326;BME280;58429;49.826;10.880;2023-01-31T03:30:17;99317;;;1.87;85.56
4326;BME280;58429;49.826;10.880;2023-01-31T03:31:17;99308;;;1.85;85.61
4326;BME280;58429;49.826;10.880;2023-01-31T03:32:17;99311;;;1.87;85.58
4326;BME280;58429;49.826;10.880;2023-01-31T03:33:18;99311;;;1.87;85.53
4326;BME280;58429;49.826;10.880;2023-01-31T03:34:17;99316;;;1.89;85.49
4326;BME280;58429;49.826;10.880;2023-01-31T03:35:17;99317;;;1.95;85.51
4326;BME280;58429;49.826;10.880;2023-01-31T03:36:20;99323;;;1.93;85.47
4326;BME280;58429;49.826;10.880;2023-01-31T03:37:19;99321;;;1.95;85.38
4326;BME280;58429;49.826;10.880;2023-01-31T03:38:18;99317;;;1.97;85.39
4326;BME280;58429;49.826;10.880;2023-01-31T03:39:18;99322;;;1.97;85.34
4326;BME280;58429;49.826;10.880;2023-01-31T03:40:18;99328;;;1.99;85.33
4326;BME280;58429;49.826;10.880;2023-01-31T03:41:19;99328;;;2;85.31
4326;BME280;58429;49.826;10.880;2023-01-31T03:42:18;99329;;;2.01;85.26
4326;BME280;58429;49.826;10.880;2023-01-31T03:43:18;99325;;;1.99;85.21
4326;BME280;58429;49.826;10.880;2023-01-31T03:44:18;99323;;;2.01;85.19
4326;BME280;58429;49.826;10.880;2023-01-31T03:45:18;99321;;;2.01;85.19
4326;BME280;58429;49.826;10.880;2023-01-31T03:46:17;99324;;;2.03;85.19
4326;BME280;58429;49.826;10.880;2023-01-31T03:47:18;99332;;;2.03;85.12
4326;BME280;58429;49.826;10.880;2023-01-31T03:48:17;99331;;;2.02;85.06
4326;BME280;58429;49.826;10.880;2023-01-31T03:49:17;99331;;;2.02;85.02
4326;BME280;58429;49.826;10.880;2023-01-31T03:50:18;99329;;;2.04;84.98
4326;BME280;58429;49.826;10.880;2023-01-31T03:51:17;99324;;;2.01;84.99
4326;BME280;58429;49.826;10.880;2023-01-31T03:52:18;99322;;;2;85.02
4326;BME280;58429;49.826;10.880;2023-01-31T03:53:17;99331;;;2.04;85
4326;BME280;58429;49.826;10.880;2023-01-31T03:54:17;99326;;;2.04;84.98
4326;BME280;58429;49.826;10.880;2023-01-31T03:55:18;99332;;;2.03;84.98
4326;BME280;58429;49.826;10.880;2023-01-31T03:56:18;99335;;;2.04;85.01
4326;BME280;58429;49.826;10.880;2023-01-31T03:57:19;99331;;;2.04;84.99
4326;BME280;58429;49.826;10.880;2023-01-31T03:58:17;99329;;;2.01;85
4326;BME280;58429;49.826;10.880;2023-01-31T03:59:17;99338;;;2.06;85.03
4326;BME280;58429;49.826;10.880;2023-01-31T04:00:17;99337;;;2.03;85.01
4326;BME280;58429;49.826;10.880;2023-01-31T04:01:17;99334;;;2.07;85.03
4326;BME280;58429;49.826;10.880;2023-01-31T04:02:17;99335;;;2.06;85.02
4326;BME280;58429;49.826;10.880;2023-01-31T04:03:18;99333;;;2.04;85
4326;BME280;58429;49.826;10.880;2023-01-31T04:04:18;99329;;;2.07;85.02
4326;BME280;58429;49.826;10.880;2023-01-31T04:05:17;99339;;;2.07;85
4326;BME280;58429;49.826;10.880;2023-01-31T04:06:17;99333;;;2.08;84.98
4326;BME280;58429;49.826;10.880;2023-01-31T04:07:17;99339;;;2.07;84.91
4326;BME280;58429;49.826;10.880;2023-01-31T04:08:17;99339;;;2.12;84.93
4326;BME280;58429;49.826;10.880;2023-01-31T04:09:17;99338;;;2.11;84.89
4326;BME280;58429;49.826;10.880;2023-01-31T04:10:17;99342;;;2.12;84.93
4326;BME280;58429;49.826;10.880;2023-01-31T04:11:18;99338;;;2.14;84.89
4326;BME280;58429;49.826;10.880;2023-01-31T04:12:17;99344;;;2.17;84.88
4326;BME280;58429;49.826;10.880;2023-01-31T04:13:17;99340;;;2.15;84.85
4326;BME280;58429;49.826;10.880;2023-01-31T04:14:17;99351;;;2.14;84.81
4326;BME280;58429;49.826;10.880;2023-01-31T04:15:17;99358;;;2.13;84.81
4326;BME280;58429;49.826;10.880;2023-01-31T04:16:17;99354;;;2.15;84.79
4326;BME280;58429;49.826;10.880;2023-01-31T04:17:17;99349;;;2.17;84.82
4326;BME280;58429;49.826;10.880;2023-01-31T04:18:17;99348;;;2.24;84.8
4326;BME280;58429;49.826;10.880;2023-01-31T04:19:17;99347;;;2.23;84.79
4326;BME280;58429;49.826;10.880;2023-01-31T04:20:17;99354;;;2.21;84.76
4326;BME280;58429;49.826;10.880;2023-01-31T04:21:17;99352;;;2.24;84.76
4326;BME280;58429;49.826;10.880;2023-01-31T04:22:17;99350;;;2.2;84.77
4326;BME280;58429;49.826;10.880;2023-01-31T04:23:17;99356;;;2.22;84.76
4326;BME280;58429;49.826;10.880;2023-01-31T04:24:17;99354;;;2.24;84.75
4326;BME280;58429;49.826;10.880;2023-01-31T04:25:17;99348;;;2.26;84.77
4326;BME280;58429;49.826;10.880;2023-01-31T04:26:17;99353;;;2.24;84.76
4326;BME280;58429;49.826;10.880;2023-01-31T04:27:17;99350;;;2.23;84.76
4326;BME280;58429;49.826;10.880;2023-01-31T04:28:17;99345;;;2.26;84.76
4326;BME280;58429;49.826;10.880;2023-01-31T04:29:17;99352;;;2.26;84.75
4326;BME280;58429;49.826;10.880;2023-01-31T04:30:17;99347;;;2.29;84.84
4326;BME280;58429;49.826;10.880;2023-01-31T04:31:17;99346;;;2.25;84.82
4326;BME280;58429;49.826;10.880;2023-01-31T04:32:17;99350;;;2.27;84.8
4326;BME280;58429;49.826;10.880;2023-01-31T04:33:17;99343;;;2.27;84.76
4326;BME280;58429;49.826;10.880;2023-01-31T04:34:17;99346;;;2.29;84.84
4326;BME280;58429;49.826;10.880;2023-01-31T04:35:17;99339;;;2.29;84.84
4326;BME280;58429;49.826;10.880;2023-01-31T04:36:17;99342;;;2.28;84.86
4326;BME280;58429;49.826;10.880;2023-01-31T04:37:17;99342;;;2.29;84.86
4326;BME280;58429;49.826;10.880;2023-01-31T04:38:17;99340;;;2.26;84.85
4326;BME280;58429;49.826;10.880;2023-01-31T04:39:17;99346;;;2.28;84.86
4326;BME280;58429;49.826;10.880;2023-01-31T04:40:17;99345;;;2.3;84.83
4326;BME280;58429;49.826;10.880;2023-01-31T04:41:17;99350;;;2.28;84.78
4326;BME280;58429;49.826;10.880;2023-01-31T04:42:17;99343;;;2.31;84.78
4326;BME280;58429;49.826;10.880;2023-01-31T04:43:17;99342;;;2.29;84.75
4326;BME280;58429;49.826;10.880;2023-01-31T04:44:17;99333;;;2.33;84.7
4326;BME280;58429;49.826;10.880;2023-01-31T04:45:17;99337;;;2.31;84.67
4326;BME280;58429;49.826;10.880;2023-01-31T04:46:17;99328;;;2.3;84.69
4326;BME280;58429;49.826;10.880;2023-01-31T04:47:17;99336;;;2.3;84.69
4326;BME280;58429;49.826;10.880;2023-01-31T04:48:17;99334;;;2.3;84.67
4326;BME280;58429;49.826;10.880;2023-01-31T04:49:17;99331;;;2.32;84.66
4326;BME280;58429;49.826;10.880;2023-01-31T04:50:17;99334;;;2.33;84.64
4326;BME280;58429;49.826;10.880;2023-01-31T04:51:17;99337;;;2.34;84.63
4326;BME280;58429;49.826;10.880;2023-01-31T04:52:17;99333;;;2.33;84.59
4326;BME280;58429;49.826;10.880;2023-01-31T04:53:17;99337;;;2.34;84.61
4326;BME280;58429;49.826;10.880;2023-01-31T04:54:17;99333;;;2.33;84.64
4326;BME280;58429;49.826;10.880;2023-01-31T04:55:17;99331;;;2.34;84.68
4326;BME280;58429;49.826;10.880;2023-01-31T04:56:17;99332;;;2.33;84.61
4326;BME280;58429;49.826;10.880;2023-01-31T04:57:17;99339;;;2.33;84.61
4326;BME280;58429;49.826;10.880;2023-01-31T04:58:17;99332;;;2.34;84.57
4326;BME280;58429;49.826;10.880;2023-01-31T04:59:17;99337;;;2.34;84.54
4326;BME280;58429;49.826;10.880;2023-01-31T05:00:17;99337;;;2.36;84.49
4326;BME280;58429;49.826;10.880;2023-01-31T05:01:17;99345;;;2.36;84.43
4326;BME280;58429;49.826;10.880;2023-01-31T05:02:17;99346;;;2.36;84.47
4326;BME280;58429;49.826;10.880;2023-01-31T05:03:17;99346;;;2.33;84.45
4326;BME280;58429;49.826;10.880;2023-01-31T05:04:17;99345;;;2.34;84.46
4326;BME280;58429;49.826;10.880;2023-01-31T05:05:17;99336;;;2.36;84.49
4326;BME280;58429;49.826;10.880;2023-01-31T05:06:17;99335;;;2.35;84.48
4326;BME280;58429;49.826;10.880;2023-01-31T05:07:17;99335;;;2.36;84.48
4326;BME280;58429;49.826;10.880;2023-01-31T05:08:17;99337;;;2.35;84.41
4326;BME280;58429;49.826;10.880;2023-01-31T05:09:17;99341;;;2.39;84.43
4326;BME280;58429;49.826;10.880;2023-01-31T05:10:17;99345;;;2.34;84.37
4326;BME280;58429;49.826;10.880;2023-01-31T05:11:17;99339;;;2.36;84.32
4326;BME280;58429;49.826;10.880;2023-01-31T05:12:17;99346;;;2.37;84.37
4326;BME280;58429;49.826;10.880;2023-01-31T05:13:17;99339;;;2.37;84.34
4326;BME280;58429;49.826;10.880;2023-01-31T05:14:17;99342;;;2.35;84.35
4326;BME280;58429;49.826;10.880;2023-01-31T05:15:17;99337;;;2.33;84.36
4326;BME280;58429;49.826;10.880;2023-01-31T05:16:17;99333;;;2.34;84.38
4326;BME280;58429;49.826;10.880;2023-01-31T05:17:17;99327;;;2.32;84.39
4326;BME280;58429;49.826;10.880;2023-01-31T05:18:17;99322;;;2.33;84.42
4326;BME280;58429;49.826;10.880;2023-01-31T05:19:17;99325;;;2.3;84.46
4326;BME280;58429;49.826;10.880;2023-01-31T05:20:17;99321;;;2.31;84.5
4326;BME280;58429;49.826;10.880;2023-01-31T05:21:17;99319;;;2.3;84.55
4326;BME280;58429;49.826;10.880;2023-01-31T05:22:17;99318;;;2.3;84.54
4326;BME280;58429;49.826;10.880;2023-01-31T05:23:17;99314;;;2.26;84.6
4326;BME280;58429;49.826;10.880;2023-01-31T05:24:17;99317;;;2.29;84.64
4326;BME280;58429;49.826;10.880;2023-01-31T05:25:17;99317;;;2.28;84.69
4326;BME280;58429;49.826;10.880;2023-01-31T05:26:17;99323;;;2.28;84.73
4326;BME280;58429;49.826;10.880;2023-01-31T05:27:17;99323;;;2.24;84.73
4326;BME280;58429;49.826;10.880;2023-01-31T05:28:17;99323;;;2.27;84.73
4326;BME280;58429;49.826;10.880;2023-01-31T05:29:17;99322;;;2.23;84.69
4326;BME280;58429;49.826;10.880;2023-01-31T05:30:17;99327;;;2.24;84.66
4326;BME280;58429;49.826;10.880;2023-01-31T05:31:17;99331;;;2.21;84.66
4326;BME280;58429;49.826;10.880;2023-01-31T05:32:17;99332;;;2.23;84.61
4326;BME280;58429;49.826;10.880;2023-01-31T05:33:17;99332;;;2.27;84.58
4326;BME280;58429;49.826;10.880;2023-01-31T05:34:17;99342;;;2.24;84.53
4326;BME280;58429;49.826;10.880;2023-01-31T05:35:17;99340;;;2.26;84.5
4326;BME280;58429;49.826;10.880;2023-01-31T05:36:17;99335;;;2.29;84.5